Time;durP1;ratioP1;P1;durP2;ratioP2;P2;SDS_P1;SDS_P2;PMS_P1;PMS_P2;Temp;Humidity;BMP_temperature;BMP_pressure;BME280_temperature;BME280_humidity;BME280_pressure;Samples;Min_cycle;Max_cycle;Signal;HPM_P1;HPM_P2
2022/02/24 00:03:12;;;;;;;8.93;3.42;;;;;;;;;;19817888;30;20051;-62
2022/02/24 00:13:15;;;;;;;6.30;2.58;;;;;;;;;;19817313;30;20055;-62
2022/02/24 00:23:17;;;;;;;5.13;2.20;;;;;;;;;;19817104;29;20410;-64
2022/02/24 00:33:19;;;;;;;4.22;2.20;;;;;;;;;;19817533;30;20501;-60
2022/02/24 00:43:22;;;;;;;6.78;2.33;;;;;;;;;;19817081;30;20429;-64
2022/02/24 00:53:24;;;;;;;5.32;2.63;;;;;;;;;;19815205;30;20059;-61
2022/02/24 01:03:26;;;;;;;6.63;2.10;;;;;;;;;;19814918;29;20055;-63
2022/02/24 01:13:28;;;;;;;6.47;2.88;;;;;;;;;;19828884;30;20055;-61
2022/02/24 01:23:30;;;;;;;6.85;2.50;;;;;;;;;;19828333;29;20059;-63
2022/02/24 01:33:32;;;;;;;8.25;2.63;;;;;;;;;;19813190;30;20116;-62
2022/02/24 01:43:34;;;;;;;6.30;2.40;;;;;;;;;;19827426;30;20104;-61
2022/02/24 01:53:38;;;;;;;6.65;2.83;;;;;;;;;;19827057;30;20059;-62
2022/02/24 02:03:41;;;;;;;6.35;3.03;;;;;;;;;;19826202;30;20055;-61
2022/02/24 02:13:43;;;;;;;5.03;2.22;;;;;;;;;;19825570;30;20055;-62
2022/02/24 02:23:45;;;;;;;5.70;2.50;;;;;;;;;;19808616;29;20055;-61
2022/02/24 02:33:48;;;;;;;9.00;2.63;;;;;;;;;;19824236;30;20059;-61
2022/02/24 02:43:51;;;;;;;5.18;2.40;;;;;;;;;;19823434;30;20128;-61
2022/02/24 02:53:54;;;;;;;5.22;2.33;;;;;;;;;;19822473;30;20055;-62
2022/02/24 03:03:57;;;;;;;6.00;2.47;;;;;;;;;;19822250;30;20055;-61
2022/02/24 03:13:59;;;;;;;7.78;4.35;;;;;;;;;;19821177;30;20524;-61
2022/02/24 03:24:03;;;;;;;6.40;2.50;;;;;;;;;;19820423;29;20060;-60
2022/02/24 03:34:08;;;;;;;5.07;2.43;;;;;;;;;;19819603;29;20055;-61
2022/02/24 03:44:13;;;;;;;6.47;2.40;;;;;;;;;;19819382;30;20083;-61
2022/02/24 03:54:15;;;;;;;6.13;2.53;;;;;;;;;;19802362;30;20418;-61
2022/02/24 04:04:17;;;;;;;6.15;2.38;;;;;;;;;;19817714;30;20055;-62
2022/02/24 04:14:20;;;;;;;5.07;2.70;;;;;;;;;;19817704;30;20524;-61
2022/02/24 04:24:24;;;;;;;7.20;2.97;;;;;;;;;;19816716;29;20525;-61
2022/02/24 04:34:26;;;;;;;4.90;2.33;;;;;;;;;;19816161;30;20059;-61
2022/02/24 04:44:30;;;;;;;5.68;2.70;;;;;;;;;;19815509;30;20055;-61
2022/02/24 04:54:33;;;;;;;5.63;3.28;;;;;;;;;;19815122;30;20494;-61
2022/02/24 05:04:36;;;;;;;5.43;2.60;;;;;;;;;;19817588;30;20055;-61
2022/02/24 05:14:38;;;;;;;5.07;2.50;;;;;;;;;;19816802;30;20086;-61
2022/02/24 05:24:42;;;;;;;5.97;2.00;;;;;;;;;;19815078;30;20059;-60
2022/02/24 05:34:45;;;;;;;4.28;2.13;;;;;;;;;;19814938;30;20170;-62
2022/02/24 05:44:48;;;;;;;4.95;2.08;;;;;;;;;;19813669;30;20080;-61
2022/02/24 05:54:51;;;;;;;6.68;3.25;;;;;;;;;;19820099;29;20055;-62
2022/02/24 06:04:54;;;;;;;5.00;2.60;;;;;;;;;;19825929;30;20409;-62
2022/02/24 06:14:58;;;;;;;9.18;3.25;;;;;;;;;;19826313;30;20410;-64
2022/02/24 06:25:01;;;;;;;4.65;2.28;;;;;;;;;;19824736;29;20506;-63
2022/02/24 06:35:05;;;;;;;5.15;2.30;;;;;;;;;;19808586;30;20463;-62
2022/02/24 06:45:08;;;;;;;7.97;3.38;;;;;;;;;;19823441;30;20055;-61
2022/02/24 06:55:12;;;;;;;9.88;4.32;;;;;;;;;;19823364;30;20112;-63
2022/02/24 07:05:15;;;;;;;9.63;3.97;;;;;;;;;;19820608;29;20051;-62
2022/02/24 07:15:17;;;;;;;5.78;2.95;;;;;;;;;;19821114;30;20142;-62
2022/02/24 07:25:20;;;;;;;13.80;5.22;;;;;;;;;;19820276;29;20063;-61
2022/02/24 07:35:41;;;;;;;10.30;3.40;;;;;;;;;;19819455;30;20078;-64
2022/02/24 07:46:03;;;;;;;13.07;3.72;;;;;;;;;;19818873;30;20066;-63
2022/02/24 07:56:09;;;;;;;10.50;4.40;;;;;;;;;;19818553;30;20489;-63
2022/02/24 08:06:13;;;;;;;10.57;4.80;;;;;;;;;;19818902;30;20055;-61
2022/02/24 08:16:16;;;;;;;13.52;5.55;;;;;;;;;;19817554;29;20138;-62
2022/02/24 08:26:20;;;;;;;16.15;6.63;;;;;;;;;;19816425;29;20190;-62
2022/02/24 08:36:24;;;;;;;16.50;4.50;;;;;;;;;;19816939;30;20508;-62
2022/02/24 08:46:29;;;;;;;10.25;4.65;;;;;;;;;;19816268;30;20051;-63
2022/02/24 08:56:31;;;;;;;19.00;7.80;;;;;;;;;;19815137;30;20063;-63
2022/02/24 09:06:35;;;;;;;12.15;5.47;;;;;;;;;;19816008;30;20148;-63
2022/02/24 09:16:38;;;;;;;11.48;5.80;;;;;;;;;;19814365;30;20063;-62
2022/02/24 09:26:40;;;;;;;16.40;5.05;;;;;;;;;;19815743;29;20470;-62
2022/02/24 09:36:44;;;;;;;20.23;5.50;;;;;;;;;;19829634;30;20055;-62
2022/02/24 09:46:47;;;;;;;8.18;5.18;;;;;;;;;;19827469;30;20557;-62
2022/02/24 09:56:50;;;;;;;8.45;3.83;;;;;;;;;;19826641;30;20062;-59
2022/02/24 10:06:53;;;;;;;8.70;4.28;;;;;;;;;;19841407;29;20489;-58
2022/02/24 10:17:04;;;;;;;51.97;9.88;;;;;;;;;;19828555;30;20055;-64
2022/02/24 10:27:35;;;;;;;11.15;5.03;;;;;;;;;;19799424;30;20060;-74
2022/02/24 10:37:38;;;;;;;10.15;4.82;;;;;;;;;;19480821;30;20255;-64
2022/02/24 10:48:00;;;;;;;12.85;4.53;;;;;;;;;;19448048;30;20217;-61
2022/02/24 10:58:04;;;;;;;13.43;4.20;;;;;;;;;;19440477;30;20065;-63
2022/02/24 11:08:08;;;;;;;9.63;4.40;;;;;;;;;;19544285;30;20055;-56
2022/02/24 11:18:10;;;;;;;13.05;4.78;;;;;;;;;;19800042;29;20083;-63
2022/02/24 11:28:14;;;;;;;10.27;3.63;;;;;;;;;;19818461;29;20063;-61
2022/02/24 11:38:16;;;;;;;11.27;4.75;;;;;;;;;;19809370;29;20058;-73
2022/02/24 11:48:20;;;;;;;10.88;3.78;;;;;;;;;;19813350;29;20063;-57
2022/02/24 11:58:39;;;;;;;12.55;4.28;;;;;;;;;;19785477;29;20057;-63
2022/02/24 12:09:00;;;;;;;7.43;3.00;;;;;;;;;;19789447;29;20505;-67
2022/02/24 12:19:02;;;;;;;9.23;4.60;;;;;;;;;;19816789;30;20446;-66
2022/02/24 12:29:26;;;;;;;13.50;3.85;;;;;;;;;;19814901;29;20148;-66
2022/02/24 12:39:29;;;;;;;9.15;3.65;;;;;;;;;;19815653;30;20112;-67
2022/02/24 12:49:47;;;;;;;9.65;4.00;;;;;;;;;;19815795;30;20071;-67
2022/02/24 12:59:49;;;;;;;9.82;3.17;;;;;;;;;;19815713;29;20055;-67
2022/02/24 13:09:58;;;;;;;6.63;3.00;;;;;;;;;;19831734;30;20138;-66
2022/02/24 13:20:00;;;;;;;6.68;3.45;;;;;;;;;;19816046;30;20055;-66
2022/02/24 13:30:02;;;;;;;8.55;3.15;;;;;;;;;;19828828;29;20067;-67
2022/02/24 13:40:06;;;;;;;9.25;2.88;;;;;;;;;;19828156;30;20551;-67
2022/02/24 13:50:08;;;;;;;8.85;3.53;;;;;;;;;;19810973;30;20058;-66
2022/02/24 14:00:12;;;;;;;9.90;2.95;;;;;;;;;;19826633;30;20058;-67
2022/02/24 14:10:14;;;;;;;9.97;3.13;;;;;;;;;;19825680;30;20150;-67
2022/02/24 14:20:20;;;;;;;10.30;3.35;;;;;;;;;;19824568;29;20062;-65
2022/02/24 14:30:22;;;;;;;10.23;3.00;;;;;;;;;;19824921;30;20094;-66
2022/02/24 14:40:24;;;;;;;10.15;3.38;;;;;;;;;;19823779;30;20058;-67
2022/02/24 14:50:26;;;;;;;6.15;2.95;;;;;;;;;;19823234;30;20563;-67
2022/02/24 15:00:30;;;;;;;9.40;3.08;;;;;;;;;;19822123;30;20489;-64
2022/02/24 15:10:32;;;;;;;9.77;3.95;;;;;;;;;;19821630;30;20475;-67
2022/02/24 15:20:34;;;;;;;8.35;3.38;;;;;;;;;;19820592;30;20059;-66
2022/02/24 15:30:36;;;;;;;11.30;3.33;;;;;;;;;;19819652;29;20063;-67
2022/02/24 15:40:39;;;;;;;9.38;4.38;;;;;;;;;;19819159;30;20161;-65
2022/02/24 15:50:43;;;;;;;10.40;3.83;;;;;;;;;;19818052;30;20058;-68
2022/02/24 16:00:45;;;;;;;12.65;3.80;;;;;;;;;;19817855;30;20052;-65
2022/02/24 16:10:47;;;;;;;8.90;4.53;;;;;;;;;;19817371;30;20203;-66
2022/02/24 16:20:49;;;;;;;12.30;4.60;;;;;;;;;;19816972;30;20085;-66
2022/02/24 16:30:51;;;;;;;15.85;5.80;;;;;;;;;;19815610;30;20052;-67
2022/02/24 16:40:53;;;;;;;7.28;4.10;;;;;;;;;;19815690;29;20082;-66
2022/02/24 16:50:55;;;;;;;8.55;5.13;;;;;;;;;;19814839;30;20059;-66
2022/02/24 17:00:57;;;;;;;8.80;4.70;;;;;;;;;;19813772;30;20108;-65
2022/02/24 17:10:59;;;;;;;13.60;6.70;;;;;;;;;;19814705;30;20090;-65
2022/02/24 17:21:06;;;;;;;8.68;4.95;;;;;;;;;;19814257;29;20146;-64
2022/02/24 17:31:11;;;;;;;9.40;4.10;;;;;;;;;;19810105;30;20055;-60
2022/02/24 17:41:13;;;;;;;8.65;4.78;;;;;;;;;;19811088;30;20097;-63
2022/02/24 17:51:16;;;;;;;15.80;8.32;;;;;;;;;;19818239;29;20055;-61
2022/02/24 18:01:18;;;;;;;15.65;7.70;;;;;;;;;;19824933;30;20043;-61
2022/02/24 18:11:21;;;;;;;14.77;7.50;;;;;;;;;;19825201;30;20481;-61
2022/02/24 18:21:23;;;;;;;14.07;5.57;;;;;;;;;;19823906;29;20063;-57
2022/02/24 18:31:26;;;;;;;7.50;3.63;;;;;;;;;;19823070;30;20059;-64
2022/02/24 18:41:28;;;;;;;14.60;5.20;;;;;;;;;;19822884;30;20060;-61
2022/02/24 18:51:31;;;;;;;17.27;6.38;;;;;;;;;;19823035;30;20606;-60
2022/02/24 19:01:33;;;;;;;13.32;7.00;;;;;;;;;;19825847;29;20051;-63
2022/02/24 19:11:41;;;;;;;14.18;5.25;;;;;;;;;;19819574;30;20146;-62
2022/02/24 19:21:45;;;;;;;13.82;6.97;;;;;;;;;;19816261;29;20070;-61
2022/02/24 19:31:47;;;;;;;12.02;5.03;;;;;;;;;;19819399;30;20059;-60
2022/02/24 19:41:50;;;;;;;13.15;4.82;;;;;;;;;;19819149;30;20055;-69
2022/02/24 19:51:52;;;;;;;11.53;4.00;;;;;;;;;;19819026;30;20059;-68
2022/02/24 20:01:55;;;;;;;9.90;4.50;;;;;;;;;;19800680;30;20055;-66
2022/02/24 20:11:58;;;;;;;11.32;4.00;;;;;;;;;;19816848;29;20108;-66
2022/02/24 20:22:00;;;;;;;14.30;4.72;;;;;;;;;;19817616;30;20138;-64
2022/02/24 20:32:03;;;;;;;12.20;4.13;;;;;;;;;;19816222;30;20146;-66
2022/02/24 20:42:05;;;;;;;9.40;4.18;;;;;;;;;;19815802;30;20139;-63
2022/02/24 20:52:08;;;;;;;11.82;3.58;;;;;;;;;;19814840;30;20055;-66
2022/02/24 21:02:10;;;;;;;9.70;4.20;;;;;;;;;;19815841;30;20055;-64
2022/02/24 21:12:14;;;;;;;11.35;5.43;;;;;;;;;;19815737;30;20485;-65
2022/02/24 21:22:18;;;;;;;8.52;3.83;;;;;;;;;;19816029;29;20142;-65
2022/02/24 21:32:20;;;;;;;8.45;2.83;;;;;;;;;;19829566;30;20055;-64
2022/02/24 21:42:22;;;;;;;6.75;3.15;;;;;;;;;;19828134;30;20052;-65
2022/02/24 21:52:24;;;;;;;8.82;4.68;;;;;;;;;;19828279;30;20059;-64
2022/02/24 22:02:27;;;;;;;10.02;4.07;;;;;;;;;;19827419;30;20062;-67
2022/02/24 22:12:29;;;;;;;10.05;3.55;;;;;;;;;;19828035;30;20063;-67
2022/02/24 22:22:31;;;;;;;8.90;4.32;;;;;;;;;;19826350;30;20066;-66
2022/02/24 22:32:34;;;;;;;8.60;4.28;;;;;;;;;;19824859;29;20055;-65
2022/02/24 22:42:36;;;;;;;11.70;3.97;;;;;;;;;;19825626;30;20047;-65
2022/02/24 22:52:38;;;;;;;12.88;3.97;;;;;;;;;;19824551;30;20058;-65
2022/02/24 23:13:01;;;;;;;13.00;4.70;;;;;;;;;;19824553;30;20485;-64
2022/02/24 23:23:03;;;;;;;10.15;4.55;;;;;;;;;;19822273;30;20059;-64
2022/02/24 23:33:06;;;;;;;12.63;5.72;;;;;;;;;;19822185;30;20493;-64
2022/02/24 23:43:08;;;;;;;11.75;5.70;;;;;;;;;;19823278;30;20058;-65
2022/02/24 23:53:10;;;;;;;11.18;5.43;;;;;;;;;;19819372;29;20138;-65
